Time;durP1;ratioP1;P1;durP2;ratioP2;P2;SDS_P1;SDS_P2;PMS_P1;PMS_P2;Temp;Humidity;BMP_temperature;BMP_pressure;BME280_temperature;BME280_humidity;BME280_pressure;Samples;Min_cycle;Max_cycle;Signal;HPM_P1;HPM_P2
2024/01/06 00:02:49;;;;;;;13.27;2.72;;;;;;;3.38;100.00;100433.84;4903128;29;20048;-96
2024/01/06 00:06:26;;;;;;;24.70;5.38;;;;;;;3.40;100.00;100440.63;4915050;29;20043;-96
2024/01/06 00:09:12;;;;;;;5.55;2.72;;;;;;;3.34;100.00;100430.56;4902169;29;20048;-96
2024/01/06 00:12:38;;;;;;;4.68;1.85;;;;;;;3.39;100.00;100440.72;4914480;29;20044;-96
2024/01/06 00:15:34;;;;;;;9.57;2.13;;;;;;;3.33;100.00;100444.56;4924677;29;20026;-96
2024/01/06 00:18:46;;;;;;;5.47;2.28;;;;;;;3.37;100.00;100453.91;4931820;29;20048;-96
2024/01/06 00:21:55;;;;;;;5.28;2.00;;;;;;;3.33;100.00;100462.84;4918754;29;20488;-96
2024/01/06 00:24:53;;;;;;;7.00;2.45;;;;;;;3.21;100.00;100449.66;4935035;29;20043;-96
2024/01/06 00:27:27;;;;;;;7.68;2.50;;;;;;;3.25;100.00;100470.34;4900622;29;20043;-96
2024/01/06 00:30:13;;;;;;;6.88;2.55;;;;;;;3.22;100.00;100463.53;4926963;29;20039;-96
2024/01/06 00:36:46;;;;;;;6.30;2.50;;;;;;;3.09;100.00;100464.28;4913509;29;20043;-96
2024/01/06 00:39:57;;;;;;;5.95;2.58;;;;;;;3.22;100.00;100476.59;4926770;29;20099;-96
2024/01/06 00:47:02;;;;;;;7.15;2.20;;;;;;;3.06;100.00;100481.91;4933259;29;20090;-96
2024/01/06 00:49:50;;;;;;;7.50;2.10;;;;;;;3.06;100.00;100477.53;4921288;29;20034;-96
2024/01/06 00:53:00;;;;;;;7.13;2.33;;;;;;;3.14;100.00;100490.13;4928221;29;20067;-96
2024/01/06 00:55:43;;;;;;;16.85;3.33;;;;;;;3.16;100.00;100497.88;4920829;29;20507;-96
2024/01/06 00:58:14;;;;;;;4.57;2.28;;;;;;;3.10;100.00;100492.09;4920079;29;20044;-96
2024/01/06 01:00:52;;;;;;;16.23;4.43;;;;;;;3.12;100.00;100499.84;4907610;29;20039;-96
2024/01/06 01:03:28;;;;;;;9.23;2.33;;;;;;;3.14;100.00;100503.19;4899826;29;20050;-96
2024/01/06 01:06:17;;;;;;;13.73;3.58;;;;;;;3.14;100.00;100507.59;4905276;29;20035;-96
2024/01/06 01:08:44;;;;;;;6.55;2.17;;;;;;;3.11;100.00;100500.75;4916301;29;20051;-96
2024/01/06 01:11:16;;;;;;;8.40;1.83;;;;;;;3.15;100.00;100501.41;4934890;29;20453;-96
2024/01/06 01:13:42;;;;;;;8.85;2.13;;;;;;;3.17;100.00;100513.44;4924820;29;20053;-96
2024/01/06 01:16:27;;;;;;;;;;;;;;;;;;;;;
2024/01/06 01:19:03;;;;;;;8.73;2.13;;;;;;;3.19;100.00;100515.97;4921865;29;20444;-95
2024/01/06 01:21:29;;;;;;;6.75;1.75;;;;;;;3.14;100.00;100524.06;4903815;29;20851;-96
2024/01/06 01:23:55;;;;;;;5.38;1.50;;;;;;;3.14;100.00;100521.47;4918854;29;20436;-96
2024/01/06 01:26:21;;;;;;;6.57;1.83;;;;;;;3.12;100.00;100527.72;4913835;29;20036;-96
2024/01/06 01:28:49;;;;;;;6.57;2.17;;;;;;;3.10;100.00;100520.00;4926407;29;20055;-96
2024/01/06 01:31:18;;;;;;;15.20;3.00;;;;;;;3.10;100.00;100533.91;4919925;29;20051;-96
2024/01/06 01:33:44;;;;;;;13.57;2.83;;;;;;;3.14;100.00;100531.09;4935202;29;20688;-96
2024/01/06 01:36:13;;;;;;;7.95;2.40;;;;;;;3.16;100.00;100530.06;4921256;29;20051;-95
2024/01/06 01:38:39;;;;;;;8.98;1.95;;;;;;;3.15;100.00;100527.53;4903060;29;20035;-96
2024/01/06 01:41:05;;;;;;;9.25;2.33;;;;;;;3.19;100.00;100542.06;4902890;29;20051;-95
2024/01/06 01:43:31;;;;;;;8.35;2.15;;;;;;;3.17;100.00;100536.94;4904461;29;20027;-96
2024/01/06 01:46:00;;;;;;;11.15;2.08;;;;;;;3.18;100.00;100541.25;4907320;29;20039;-95
2024/01/06 01:48:26;;;;;;;6.70;1.52;;;;;;;3.16;100.00;100540.50;4914533;29;20493;-96
2024/01/06 01:51:00;;;;;;;10.45;1.20;;;;;;;3.12;100.00;100530.34;4900866;29;20477;-96
2024/01/06 01:53:32;;;;;;;9.75;2.30;;;;;;;3.15;100.00;100533.63;4912734;29;20043;-96
2024/01/06 01:56:04;;;;;;;10.43;2.30;;;;;;;3.13;100.00;100540.69;4902871;29;20031;-94
2024/01/06 01:58:38;;;;;;;8.20;1.40;;;;;;;3.12;100.00;100540.78;4904197;29;20043;-96
2024/01/06 02:01:15;;;;;;;;;;;;;;;;;;;;;
2024/01/06 02:03:52;;;;;;;5.90;1.48;;;;;;;3.13;100.00;100545.06;4930684;29;20035;-96
2024/01/06 02:06:20;;;;;;;3.83;1.30;;;;;;;3.16;100.00;100550.09;4919894;29;20027;-96
2024/01/06 02:15:38;;;;;;;16.77;1.70;;;;;;;3.15;100.00;100556.28;4949181;28;20111;-95
2024/01/06 02:18:04;;;;;;;9.43;1.65;;;;;;;3.14;100.00;100550.19;4916050;29;20047;-96
2024/01/06 02:20:31;;;;;;;5.70;1.63;;;;;;;3.19;100.00;100557.75;4929072;29;20035;-96
2024/01/06 02:22:59;;;;;;;4.18;1.30;;;;;;;3.17;100.00;100557.84;4934757;29;20042;-96
2024/01/06 02:25:29;;;;;;;6.97;1.17;;;;;;;3.22;100.00;100560.19;4935084;29;20046;-96
2024/01/06 02:27:57;;;;;;;6.35;1.27;;;;;;;3.21;100.00;100564.59;4930198;29;20040;-95
2024/01/06 02:30:30;;;;;;;5.70;1.30;;;;;;;3.16;100.00;100569.25;4919163;29;20134;-95
2024/01/06 02:32:56;;;;;;;5.93;2.17;;;;;;;3.25;100.00;100577.47;4924359;29;20040;-96
2024/01/06 02:35:22;;;;;;;5.13;1.23;;;;;;;3.16;100.00;100578.84;4917348;29;20072;-96
2024/01/06 02:37:48;;;;;;;3.53;1.50;;;;;;;3.25;100.00;100585.28;4947130;29;20091;-96
2024/01/06 02:40:15;;;;;;;8.27;2.58;;;;;;;3.25;100.00;100596.56;4918859;29;20047;-96
2024/01/06 02:42:41;;;;;;;10.20;1.85;;;;;;;3.19;100.00;100587.34;4934345;29;20063;-96
2024/01/06 02:45:08;;;;;;;6.90;1.30;;;;;;;3.23;100.00;100593.22;4917919;29;20035;-96
2024/01/06 02:47:37;;;;;;;5.38;1.30;;;;;;;3.23;100.00;100590.63;4919544;29;20054;-96
2024/01/06 02:50:04;;;;;;;5.50;1.13;;;;;;;3.20;100.00;100594.22;4934074;29;20048;-96
2024/01/06 02:52:30;;;;;;;6.40;1.30;;;;;;;3.18;100.00;100598.72;4930204;29;20080;-96
2024/01/06 02:54:56;;;;;;;3.08;1.50;;;;;;;3.22;100.00;100604.59;4934792;29;20039;-96
2024/01/06 02:57:22;;;;;;;9.10;1.27;;;;;;;3.19;100.00;100602.16;4929939;29;20476;-96
2024/01/06 02:59:48;;;;;;;13.00;2.47;;;;;;;3.22;100.00;100618.50;4908314;29;20126;-95
2024/01/06 03:02:14;;;;;;;6.03;1.10;;;;;;;3.18;100.00;100605.72;4910290;29;20081;-95
2024/01/06 03:04:40;;;;;;;6.88;1.23;;;;;;;3.14;100.00;100607.66;4943090;28;20114;-96
2024/01/06 03:07:06;;;;;;;5.13;1.30;;;;;;;3.16;100.00;100612.78;4904377;29;20032;-95
2024/01/06 03:09:40;;;;;;;8.60;1.15;;;;;;;3.15;100.00;100618.97;4931688;29;20047;-95
2024/01/06 03:12:16;;;;;;;3.40;1.00;;;;;;;3.12;100.00;100621.75;4947906;28;20098;-95
2024/01/06 03:14:44;;;;;;;6.60;0.98;;;;;;;3.12;100.00;100621.75;4945402;28;20043;-96
2024/01/06 03:17:11;;;;;;;8.10;1.10;;;;;;;3.06;100.00;100615.09;4971172;28;20050;-96
2024/01/06 03:19:37;;;;;;;8.23;1.42;;;;;;;3.12;100.00;100633.06;4970808;28;20031;-96
2024/01/06 03:22:06;;;;;;;6.57;1.30;;;;;;;3.12;100.00;100630.44;4956261;28;20034;-96
2024/01/06 03:24:32;;;;;;;6.20;1.10;;;;;;;3.04;100.00;100625.66;4955456;28;20066;-96
2024/01/06 03:26:58;;;;;;;5.82;1.00;;;;;;;3.09;100.00;100634.06;4968536;28;20077;-96
2024/01/06 03:29:33;;;;;;;9.48;1.15;;;;;;;3.10;100.00;100643.59;4966942;28;20039;-96
2024/01/06 03:31:59;;;;;;;6.32;1.40;;;;;;;3.13;100.00;100650.41;4954881;28;20412;-96
2024/01/06 03:34:25;;;;;;;3.83;0.98;;;;;;;3.14;100.00;100643.41;4950473;28;20042;-96
2024/01/06 03:36:51;;;;;;;10.05;1.50;;;;;;;3.13;100.00;100650.41;4969979;28;20054;-96
2024/01/06 03:39:19;;;;;;;5.13;0.70;;;;;;;3.14;100.00;100646.84;4988370;28;20396;-96
2024/01/06 03:41:45;;;;;;;9.52;1.40;;;;;;;3.05;100.00;100640.41;4953487;28;20034;-96
2024/01/06 03:44:11;;;;;;;8.50;1.50;;;;;;;3.11;100.00;100652.25;4961156;28;20100;-96
2024/01/06 03:46:37;;;;;;;6.20;1.30;;;;;;;3.02;100.00;100637.97;4954316;28;20043;-95
2024/01/06 03:49:03;;;;;;;8.75;1.08;;;;;;;3.04;100.00;100651.75;4955032;28;20039;-96
2024/01/06 03:51:29;;;;;;;5.10;0.82;;;;;;;3.07;100.00;100664.63;4987706;28;20099;-96
2024/01/06 03:53:57;;;;;;;8.63;1.17;;;;;;;3.00;100.00;100654.63;4939996;28;20074;-95
2024/01/06 03:56:23;;;;;;;7.88;1.00;;;;;;;3.05;100.00;100671.75;4971297;28;20030;-96
2024/01/06 03:58:49;;;;;;;3.40;0.70;;;;;;;3.04;100.00;100670.03;4940105;28;20061;-96
2024/01/06 04:01:15;;;;;;;6.15;1.10;;;;;;;3.01;100.00;100670.22;4956546;28;20129;-96
2024/01/06 04:03:41;;;;;;;12.18;1.52;;;;;;;2.93;100.00;100662.84;4969827;28;20070;-96
2024/01/06 04:06:07;;;;;;;9.70;1.52;;;;;;;2.98;100.00;100670.41;4968859;28;20046;-96
2024/01/06 04:08:33;;;;;;;6.45;1.50;;;;;;;2.96;100.00;100670.50;4962273;28;20098;-96
2024/01/06 04:10:59;;;;;;;6.50;1.42;;;;;;;2.90;100.00;100670.03;4971556;28;20534;-96
2024/01/06 04:13:25;;;;;;;6.40;1.20;;;;;;;2.94;100.00;100668.91;4939994;28;20137;-96
2024/01/06 04:15:51;;;;;;;7.43;1.00;;;;;;;2.96;100.00;100669.66;4958434;28;20742;-96
2024/01/06 04:18:18;;;;;;;9.45;1.20;;;;;;;2.96;100.00;100677.50;4985428;28;20059;-95
2024/01/06 04:20:46;;;;;;;5.65;1.20;;;;;;;2.91;100.00;100664.72;4981827;28;20073;-96
2024/01/06 04:23:12;;;;;;;4.63;1.15;;;;;;;2.90;100.00;100663.00;4978349;28;20108;-96
2024/01/06 04:25:38;;;;;;;8.40;1.17;;;;;;;2.98;100.00;100678.22;4977787;28;20126;-96
2024/01/06 04:28:04;;;;;;;7.03;1.27;;;;;;;2.95;100.00;100663.59;4971476;28;20545;-95
2024/01/06 04:30:30;;;;;;;10.15;1.20;;;;;;;2.98;100.00;100671.25;4961793;28;20073;-96
2024/01/06 04:32:57;;;;;;;8.82;1.65;;;;;;;3.01;100.00;100675.44;4987770;28;20035;-96
2024/01/06 04:35:23;;;;;;;8.25;1.30;;;;;;;3.02;100.00;100676.28;4971862;28;20041;-96
2024/01/06 04:37:49;;;;;;;6.85;1.35;;;;;;;2.94;100.00;100666.28;4971579;28;20047;-96
2024/01/06 04:40:15;;;;;;;4.32;1.05;;;;;;;2.95;100.00;100674.03;4955802;28;20042;-95
2024/01/06 04:42:41;;;;;;;6.50;1.30;;;;;;;2.97;100.00;100668.72;4951602;28;20045;-96
2024/01/06 04:45:08;;;;;;;8.52;1.38;;;;;;;3.01;100.00;100688.50;4955272;28;20074;-96
2024/01/06 04:47:34;;;;;;;4.50;1.13;;;;;;;2.98;100.00;100688.69;4967783;28;20066;-96
2024/01/06 04:50:00;;;;;;;10.13;1.48;;;;;;;3.00;100.00;100693.81;4951544;28;20093;-96
2024/01/06 04:52:26;;;;;;;8.23;1.33;;;;;;;2.98;100.00;100693.91;4954532;28;20126;-96
2024/01/06 04:54:52;;;;;;;3.50;0.85;;;;;;;2.94;100.00;100689.78;4970064;28;20122;-95
2024/01/06 04:57:21;;;;;;;6.15;0.95;;;;;;;2.90;100.00;100693.53;4975754;28;20066;-95
2024/01/06 04:59:50;;;;;;;5.38;1.08;;;;;;;2.88;100.00;100697.97;4976585;28;20042;-95
2024/01/06 05:02:16;;;;;;;3.72;0.70;;;;;;;2.93;100.00;100706.41;4941617;28;20042;-96
2024/01/06 05:04:42;;;;;;;5.82;0.77;;;;;;;2.91;100.00;100710.88;4959543;28;20039;-96
2024/01/06 05:07:08;;;;;;;6.95;0.88;;;;;;;2.82;100.00;100704.41;4941594;28;20472;-96
2024/01/06 05:09:34;;;;;;;7.05;1.25;;;;;;;2.87;100.00;100718.03;4943203;28;20454;-95
2024/01/06 05:12:00;;;;;;;5.60;1.08;;;;;;;2.85;100.00;100715.50;4990870;28;20035;-96
2024/01/06 05:14:28;;;;;;;6.22;1.23;;;;;;;2.77;100.00;100709.03;4959331;28;20495;-96
2024/01/06 05:16:54;;;;;;;6.78;1.40;;;;;;;2.82;100.00;100726.13;4970468;28;20480;-95
2024/01/06 05:19:21;;;;;;;11.50;2.95;;;;;;;2.82;100.00;100726.13;4959673;28;20046;-96
2024/01/06 05:21:47;;;;;;;4.88;0.70;;;;;;;2.76;100.00;100718.63;5007221;28;20050;-95
2024/01/06 05:24:13;;;;;;;7.82;0.90;;;;;;;2.67;100.00;100721.75;4976553;28;20039;-95
2024/01/06 05:26:39;;;;;;;5.60;1.00;;;;;;;2.58;100.00;100717.91;4945185;28;20182;-96
2024/01/06 05:29:06;;;;;;;5.13;0.88;;;;;;;2.54;100.00;100724.22;4980312;28;20093;-95
2024/01/06 05:31:31;;;;;;;6.68;1.20;;;;;;;2.51;100.00;100720.00;4961506;28;20436;-95
2024/01/06 05:33:57;;;;;;;6.80;0.68;;;;;;;2.52;100.00;100734.72;4944335;28;20130;-95
2024/01/06 05:36:23;;;;;;;5.20;0.88;;;;;;;2.53;100.00;100741.66;4962037;28;20090;-95
2024/01/06 05:38:50;;;;;;;13.88;1.42;;;;;;;2.53;100.00;100740.81;4992180;28;20085;-95
2024/01/06 05:41:15;;;;;;;4.88;0.75;;;;;;;2.48;100.00;100741.88;4982206;28;20039;-95
2024/01/06 05:43:41;;;;;;;3.25;0.70;;;;;;;2.46;100.00;100742.91;4975178;28;20106;-95
2024/01/06 05:46:07;;;;;;;10.35;1.38;;;;;;;2.40;100.00;100738.88;4964411;28;20042;-95
2024/01/06 05:48:33;;;;;;;4.82;1.02;;;;;;;2.40;100.00;100746.69;4958588;28;20073;-95
2024/01/06 05:50:59;;;;;;;8.73;1.40;;;;;;;2.36;100.00;100745.16;4973456;28;20137;-94
2024/01/06 05:53:25;;;;;;;13.52;2.15;;;;;;;2.34;100.00;100750.47;4962832;28;20516;-95
2024/01/06 05:55:51;;;;;;;16.55;0.90;;;;;;;2.29;100.00;100742.06;4959251;28;20031;-95
2024/01/06 05:58:17;;;;;;;4.47;0.85;;;;;;;2.27;100.00;100738.69;4957596;28;20151;-95
2024/01/06 06:00:45;;;;;;;5.88;1.23;;;;;;;2.22;100.00;100744.16;4957752;28;20187;-95
2024/01/06 06:03:11;;;;;;;9.57;0.90;;;;;;;2.26;100.00;100749.22;4974010;28;20038;-95
2024/01/06 06:05:36;;;;;;;8.13;0.65;;;;;;;2.21;100.00;100742.47;4963584;28;20514;-95
2024/01/06 06:08:03;;;;;;;7.65;1.10;;;;;;;2.22;100.00;100762.41;4959619;28;20042;-95
2024/01/06 06:10:41;;;;;;;7.40;1.00;;;;;;;2.21;100.00;100763.31;4974491;28;20112;-95
2024/01/06 06:13:10;;;;;;;7.22;0.90;;;;;;;2.21;100.00;100760.72;4958902;28;20034;-95
2024/01/06 06:15:37;;;;;;;5.47;0.75;;;;;;;2.17;100.00;100771.41;4956590;28;20047;-94
2024/01/06 06:18:03;;;;;;;4.75;0.77;;;;;;;2.14;100.00;100772.41;4984151;28;20035;-94
2024/01/06 06:20:28;;;;;;;12.73;0.93;;;;;;;2.13;100.00;100777.72;4948702;28;20065;-94
2024/01/06 06:22:54;;;;;;;4.88;0.63;;;;;;;2.08;100.00;100770.97;4944635;28;20054;-94
2024/01/06 06:25:20;;;;;;;9.60;1.30;;;;;;;2.08;100.00;100772.75;4941716;28;20042;-96
2024/01/06 06:27:46;;;;;;;4.13;1.33;;;;;;;2.09;100.00;100785.69;4989745;28;20534;-94
2024/01/06 06:30:12;;;;;;;4.53;1.10;;;;;;;2.06;100.00;100775.44;4954101;28;20046;-93
2024/01/06 06:32:38;;;;;;;5.07;0.88;;;;;;;2.08;100.00;100789.22;4954082;28;20039;-94
2024/01/06 06:35:04;;;;;;;5.45;1.23;;;;;;;2.07;100.00;100787.53;4961600;28;20549;-93
2024/01/06 06:37:30;;;;;;;4.93;0.95;;;;;;;2.05;100.00;100788.53;4989280;28;20057;-94
2024/01/06 06:39:56;;;;;;;10.15;1.02;;;;;;;2.06;100.00;100788.47;4973729;28;20916;-93
2024/01/06 06:42:21;;;;;;;6.32;0.63;;;;;;;2.06;100.00;100791.06;4956959;28;20045;-93
2024/01/06 06:44:47;;;;;;;7.47;1.13;;;;;;;2.09;100.00;100800.47;4955892;28;20396;-94
2024/01/06 06:47:13;;;;;;;4.18;1.02;;;;;;;2.13;100.00;100806.38;4973219;28;20133;-93
2024/01/06 06:49:39;;;;;;;6.18;1.70;;;;;;;2.13;100.00;100811.59;4968253;28;20438;-95
2024/01/06 06:52:07;;;;;;;8.02;1.08;;;;;;;2.15;100.00;100810.59;4951827;28;20122;-93
2024/01/06 06:54:32;;;;;;;4.90;1.45;;;;;;;2.18;100.00;100812.22;4973618;28;20043;-94
2024/01/06 06:56:58;;;;;;;7.00;1.20;;;;;;;2.18;100.00;100820.03;4986446;28;20053;-95
2024/01/06 06:59:24;;;;;;;5.80;0.80;;;;;;;2.20;100.00;100824.25;4972182;28;20034;-94
2024/01/06 07:01:50;;;;;;;7.32;1.92;;;;;;;2.20;100.00;100834.69;4948531;28;20570;-93
2024/01/06 07:04:15;;;;;;;2.97;0.82;;;;;;;2.19;100.00;100825.19;4956180;28;20038;-95
2024/01/06 07:06:41;;;;;;;4.78;1.05;;;;;;;2.19;100.00;100824.31;5002334;28;20038;-94
2024/01/06 07:09:07;;;;;;;5.20;0.90;;;;;;;2.17;100.00;100827.00;4955975;28;20043;-95
2024/01/06 07:11:33;;;;;;;5.47;0.68;;;;;;;2.20;100.00;100829.47;4952873;28;20039;-94
2024/01/06 07:13:58;;;;;;;6.00;0.80;;;;;;;2.20;100.00;100820.78;4969549;28;20061;-94
2024/01/06 07:16:24;;;;;;;8.70;1.00;;;;;;;2.19;100.00;100830.41;4972721;28;20041;-94
2024/01/06 07:18:50;;;;;;;6.95;1.40;;;;;;;2.21;100.00;100835.53;4956686;28;20110;-95
2024/01/06 07:21:16;;;;;;;6.30;0.70;;;;;;;2.22;100.00;100839.81;4960626;28;20376;-94
2024/01/06 07:23:42;;;;;;;6.28;1.00;;;;;;;2.18;100.00;100841.72;4988266;28;20093;-93
2024/01/06 07:26:08;;;;;;;3.88;0.60;;;;;;;2.11;100.00;100832.56;4957432;28;20038;-94
2024/01/06 07:28:34;;;;;;;8.77;1.08;;;;;;;2.06;100.00;100838.00;4972559;28;20097;-94
2024/01/06 07:31:00;;;;;;;7.50;0.70;;;;;;;2.06;100.00;100843.22;4955501;28;20046;-94
2024/01/06 07:33:26;;;;;;;6.18;0.70;;;;;;;2.02;100.00;100851.28;4987552;28;20437;-94
2024/01/06 07:35:52;;;;;;;5.68;0.90;;;;;;;2.01;100.00;100852.22;4973388;28;20056;-94
2024/01/06 07:38:19;;;;;;;4.68;0.80;;;;;;;1.99;100.00;100852.28;4956527;28;20039;-93
2024/01/06 07:40:45;;;;;;;3.70;0.80;;;;;;;1.97;100.00;100861.94;4973055;28;20201;-94
2024/01/06 07:43:11;;;;;;;5.78;0.88;;;;;;;1.97;100.00;100864.56;5003660;28;20115;-94
2024/01/06 07:45:36;;;;;;;9.15;1.40;;;;;;;1.97;100.00;100865.41;4956107;28;20030;-94
2024/01/06 07:48:02;;;;;;;2.50;0.70;;;;;;;1.95;100.00;100869.00;4927520;28;20708;-94
2024/01/06 07:50:28;;;;;;;5.80;1.27;;;;;;;1.91;100.00;100870.09;4969426;28;20108;-93
2024/01/06 07:52:54;;;;;;;5.45;0.93;;;;;;;1.79;100.00;100871.53;4971893;28;20050;-94
2024/01/06 07:55:20;;;;;;;7.40;1.00;;;;;;;1.80;100.00;100879.25;4964689;28;20412;-93
2024/01/06 07:57:46;;;;;;;7.05;0.95;;;;;;;1.80;100.00;100876.66;4955582;28;20381;-93
2024/01/06 08:00:16;;;;;;;3.50;0.73;;;;;;;1.79;100.00;100887.16;4961821;28;20039;-93
2024/01/06 08:02:42;;;;;;;8.25;0.90;;;;;;;1.72;100.00;100892.69;4992157;28;20034;-94
2024/01/06 08:05:08;;;;;;;4.80;0.77;;;;;;;1.69;100.00;100898.03;4972619;28;20039;-94
2024/01/06 08:07:34;;;;;;;6.68;2.28;;;;;;;1.68;100.00;100890.31;4971102;28;20038;-93
2024/01/06 08:10:00;;;;;;;5.05;0.85;;;;;;;1.65;100.00;100906.09;4956848;28;20031;-92
2024/01/06 08:12:26;;;;;;;5.35;0.95;;;;;;;1.59;100.00;100902.03;4965957;28;20035;-93
2024/01/06 08:14:52;;;;;;;7.32;0.70;;;;;;;1.61;100.00;100906.25;4987465;28;20081;-94
2024/01/06 08:17:17;;;;;;;3.80;0.77;;;;;;;1.58;100.00;100905.53;4988045;28;20484;-94
2024/01/06 08:19:43;;;;;;;7.60;1.15;;;;;;;1.56;100.00;100916.03;4942787;28;20057;-94
2024/01/06 08:22:09;;;;;;;5.45;0.68;;;;;;;1.55;100.00;100916.97;4967567;28;20034;-94
2024/01/06 08:24:35;;;;;;;6.15;0.90;;;;;;;1.58;100.00;100929.00;4969164;28;20043;-94
2024/01/06 08:27:00;;;;;;;9.65;1.00;;;;;;;1.58;100.00;100921.16;4970123;28;20451;-94
2024/01/06 08:29:26;;;;;;;7.70;1.00;;;;;;;1.61;100.00;100932.28;4955167;28;20062;-93
2024/01/06 08:31:54;;;;;;;6.25;1.15;;;;;;;1.67;100.00;100931.16;4972347;28;20036;-93
2024/01/06 08:34:20;;;;;;;5.57;1.05;;;;;;;1.70;100.00;100928.41;4953219;28;20046;-94
2024/01/06 08:36:46;;;;;;;4.97;1.58;;;;;;;1.70;100.00;100935.38;4975179;28;20482;-94
2024/01/06 08:39:12;;;;;;;3.72;1.00;;;;;;;1.68;100.00;100943.28;4990568;28;20049;-94
2024/01/06 08:41:38;;;;;;;9.68;2.60;;;;;;;1.66;100.00;100946.84;4971927;28;20045;-93
2024/01/06 08:44:04;;;;;;;4.30;1.10;;;;;;;1.64;100.00;100948.72;4973563;28;20030;-93
2024/01/06 08:46:30;;;;;;;6.28;0.98;;;;;;;1.64;100.00;100956.53;4960759;28;20046;-94
2024/01/06 08:48:56;;;;;;;11.05;1.50;;;;;;;1.63;100.00;100947.84;5007665;28;20479;-94
2024/01/06 08:51:23;;;;;;;6.28;1.27;;;;;;;1.64;100.00;100956.53;4957470;28;20035;-94
2024/01/06 08:53:49;;;;;;;2.97;0.80;;;;;;;1.63;100.00;100962.63;4979860;28;20030;-94
2024/01/06 08:56:17;;;;;;;4.03;0.77;;;;;;;1.61;100.00;100968.78;4963155;28;20027;-94
2024/01/06 08:58:43;;;;;;;6.40;1.08;;;;;;;1.61;100.00;100978.34;4973160;28;20030;-94
2024/01/06 09:01:09;;;;;;;5.80;0.70;;;;;;;1.55;100.00;100973.44;5007501;28;20048;-94
2024/01/06 09:03:35;;;;;;;7.15;0.90;;;;;;;1.58;100.00;100981.97;4958067;28;20038;-94
2024/01/06 09:06:01;;;;;;;5.40;1.17;;;;;;;1.60;100.00;100995.75;4990992;28;20034;-93
2024/01/06 09:08:27;;;;;;;5.22;0.70;;;;;;;1.63;100.00;100999.13;4967306;28;20058;-93
2024/01/06 09:10:56;;;;;;;5.10;0.88;;;;;;;1.70;100.00;101000.53;4956343;28;20039;-93
2024/01/06 09:13:23;;;;;;;7.47;1.48;;;;;;;1.70;100.00;100995.31;4986717;28;20559;-94
2024/01/06 09:15:51;;;;;;;7.07;0.82;;;;;;;1.70;100.00;100998.78;4943024;28;20120;-94
2024/01/06 09:18:16;;;;;;;5.72;0.70;;;;;;;1.72;100.00;101009.97;4975030;28;20039;-93
2024/01/06 09:20:42;;;;;;;5.55;1.33;;;;;;;1.75;100.00;101019.41;4988506;28;20027;-94
2024/01/06 09:23:10;;;;;;;3.30;0.85;;;;;;;1.78;100.00;101016.66;4958415;28;20038;-95
2024/01/06 09:25:36;;;;;;;1.95;0.85;;;;;;;1.81;100.00;101028.69;4956557;28;20488;-94
2024/01/06 09:28:01;;;;;;;7.93;1.20;;;;;;;1.76;100.00;101020.25;4974347;28;20041;-94
2024/01/06 09:30:27;;;;;;;11.32;1.10;;;;;;;1.82;100.00;101033.84;4958698;28;20039;-95
2024/01/06 09:32:53;;;;;;;3.33;0.75;;;;;;;1.82;100.00;101035.59;4959768;28;20182;-95
2024/01/06 09:35:18;;;;;;;7.93;0.93;;;;;;;1.87;100.00;101038.81;4976017;28;20066;-94
2024/01/06 09:37:44;;;;;;;5.78;1.10;;;;;;;1.90;100.00;101037.81;4959593;28;20054;-93
2024/01/06 09:40:13;;;;;;;3.88;0.70;;;;;;;1.96;100.00;101041.00;4943183;28;20042;-94
2024/01/06 09:42:39;;;;;;;7.22;1.27;;;;;;;2.00;100.00;101046.06;4956563;28;20089;-93
2024/01/06 09:45:06;;;;;;;5.38;1.42;;;;;;;2.06;100.00;101041.41;4956216;28;20125;-93
2024/01/06 09:47:35;;;;;;;8.95;1.33;;;;;;;2.17;100.00;101053.06;4961674;28;20442;-94
2024/01/06 09:50:04;;;;;;;4.60;1.38;;;;;;;2.22;100.00;101056.31;4956237;28;20031;-93
2024/01/06 09:52:32;;;;;;;3.70;1.08;;;;;;;2.29;100.00;101065.53;4959312;28;20033;-94
2024/01/06 09:55:00;;;;;;;5.20;0.95;;;;;;;2.31;100.00;101062.84;4947696;28;20100;-94
2024/01/06 09:57:26;;;;;;;10.45;2.63;;;;;;;2.34;100.00;101063.53;4956376;28;20042;-94
2024/01/06 09:59:52;;;;;;;8.02;1.00;;;;;;;2.35;100.00;101067.00;4975448;28;20058;-94
2024/01/06 10:02:20;;;;;;;3.85;0.77;;;;;;;2.42;100.00;101068.38;4973134;28;20058;-94
2024/01/06 10:04:46;;;;;;;7.20;1.00;;;;;;;2.51;100.00;101072.31;4953507;28;20110;-95
2024/01/06 10:07:13;;;;;;;4.50;0.70;;;;;;;2.61;100.00;101075.31;4973433;28;20712;-95
2024/01/06 10:09:42;;;;;;;5.20;1.02;;;;;;;2.75;100.00;101078.97;4935611;28;20038;-94
2024/01/06 10:12:09;;;;;;;5.45;1.20;;;;;;;2.81;100.00;101081.28;4967657;28;20039;-93
2024/01/06 10:14:36;;;;;;;6.57;0.82;;;;;;;2.89;100.00;101080.88;4941889;28;20046;-93
2024/01/06 10:17:02;;;;;;;3.40;1.10;;;;;;;2.93;100.00;101077.19;4941820;28;20038;-95
2024/01/06 10:19:28;;;;;;;5.47;0.80;;;;;;;2.98;100.00;101076.03;4936110;29;20075;-94
2024/01/06 10:21:54;;;;;;;4.20;0.70;;;;;;;3.05;100.00;101086.16;4971336;28;20042;-94
2024/01/06 10:24:20;;;;;;;6.15;0.88;;;;;;;3.10;100.00;101085.00;4955336;28;20050;-94
2024/01/06 10:26:46;;;;;;;10.73;0.80;;;;;;;3.13;100.00;101089.22;4941799;28;20031;-94
2024/01/06 10:29:15;;;;;;;8.98;1.15;;;;;;;3.26;100.00;101093.81;4939743;28;20536;-95
2024/01/06 10:31:41;;;;;;;4.18;0.95;;;;;;;3.25;100.00;101092.94;4969464;28;20035;-94
2024/01/06 10:34:07;;;;;;;4.43;1.00;;;;;;;3.34;100.00;101102.91;4954214;28;20039;-94
2024/01/06 10:36:33;;;;;;;9.75;0.77;;;;;;;3.42;100.00;101101.69;4945514;28;20029;-95
2024/01/06 10:38:59;;;;;;;5.78;0.90;;;;;;;3.48;100.00;101111.81;4957512;28;20069;-94
2024/01/06 10:41:25;;;;;;;9.32;1.17;;;;;;;3.54;100.00;101116.72;4940493;28;20093;-95
2024/01/06 10:43:51;;;;;;;6.35;1.25;;;;;;;3.60;100.00;101119.00;4973882;28;20058;-95
2024/01/06 10:46:22;;;;;;;6.50;1.70;;;;;;;3.71;100.00;101113.19;4943926;28;20038;-95
2024/01/06 10:48:50;;;;;;;8.30;1.23;;;;;;;3.77;100.00;101112.03;4958190;28;20047;-95
2024/01/06 10:51:16;;;;;;;5.95;1.60;;;;;;;3.84;100.00;101113.38;4955991;28;20062;-94
2024/01/06 10:53:43;;;;;;;4.18;1.77;;;;;;;3.89;100.00;101117.50;4942154;28;20047;-94
2024/01/06 10:56:10;;;;;;;13.65;4.63;;;;;;;3.95;100.00;101117.19;4973708;28;20484;-95
2024/01/06 10:58:42;;;;;;;20.95;7.55;;;;;;;4.02;100.00;101115.06;4956544;28;20042;-95
2024/01/06 11:01:09;;;;;;;16.98;5.35;;;;;;;4.10;100.00;101115.47;4937606;28;20035;-94
2024/01/06 11:03:37;;;;;;;15.38;6.80;;;;;;;4.17;100.00;101110.75;4956820;28;20045;-94
2024/01/06 11:06:10;;;;;;;16.35;6.15;;;;;;;4.22;100.00;101116.59;4974288;28;20097;-95
2024/01/06 11:08:49;;;;;;;16.02;6.03;;;;;;;4.33;100.00;101108.13;4939592;28;20049;-95
2024/01/06 11:11:19;;;;;;;13.95;4.80;;;;;;;4.39;100.00;101101.69;4939142;28;20061;-95
2024/01/06 11:13:47;;;;;;;11.65;3.50;;;;;;;4.43;100.00;101101.41;4942095;28;20054;-95
2024/01/06 11:16:35;;;;;;;8.48;2.70;;;;;;;4.56;100.00;101108.56;4954902;28;20042;-96
2024/01/06 11:19:01;;;;;;;10.18;2.30;;;;;;;4.60;100.00;101112.72;4944064;28;20150;-96
2024/01/06 11:21:29;;;;;;;7.55;1.75;;;;;;;4.68;100.00;101113.09;4931431;29;20039;-95
2024/01/06 11:24:07;;;;;;;10.15;1.83;;;;;;;4.81;100.00;101118.44;4940321;28;20490;-95
2024/01/06 11:26:32;;;;;;;11.43;1.27;;;;;;;4.88;100.00;101128.56;4976344;28;20057;-95
2024/01/06 11:29:00;;;;;;;7.07;1.33;;;;;;;4.99;100.00;101122.69;4949131;28;20487;-95
2024/01/06 11:31:32;;;;;;;3.85;0.90;;;;;;;5.08;100.00;101120.38;4958446;28;20485;-96
2024/01/06 11:34:18;;;;;;;7.53;1.27;;;;;;;5.17;100.00;101126.00;4956280;28;20113;-96
2024/01/06 11:36:48;;;;;;;8.40;1.27;;;;;;;5.17;100.00;101120.75;4956825;28;20046;-96
2024/01/06 11:39:38;;;;;;;6.28;1.35;;;;;;;5.30;100.00;101126.94;4970862;28;20042;-96
2024/01/06 11:42:04;;;;;;;8.48;1.00;;;;;;;5.30;100.00;101121.69;4954961;28;20449;-96
2024/01/06 11:44:33;;;;;;;4.53;0.82;;;;;;;5.43;100.00;101132.28;4953072;28;20050;-96
2024/01/06 11:46:59;;;;;;;7.57;1.10;;;;;;;5.43;100.00;101123.59;4941016;28;20039;-95
2024/01/06 11:49:29;;;;;;;9.35;2.03;;;;;;;5.59;100.00;101124.31;4948057;28;20043;-96
2024/01/06 11:51:56;;;;;;;6.20;1.38;;;;;;;5.61;100.00;101121.59;4940767;28;20546;-95